Observation data for Pampa on 02/15/2017      Previous  Date  Next       Current Mesonet Observations  Soil Data  Daily Summary Page  Observations in Plain Language
KPMS 150600Z 31008KT 00/M03 A3015 RMK A01 T00021032  RH  079%=      5-min Rain = 0
KPMS 150605Z 30008KT 00/03 A3015 RMK A01 T00000-32  RH  080%=      5-min Rain = 0
KPMS 150610Z 30008KT 00/M03 A3015 RMK A01 T00011032  RH  079%=      5-min Rain = 0
KPMS 150615Z 30009KT 00/M03 A3016 RMK A01 T00011032  RH  079%=      5-min Rain = 0
KPMS 150620Z 30009KT 00/M03 A3016 RMK A01 T00021032  RH  079%=      5-min Rain = 0
KPMS 150625Z 30009KT M00/M03 A3016 RMK A01 T10011033  RH  080%=      5-min Rain = 0
KPMS 150630Z 30010KT M00/M03 A3016 RMK A01 T10021033  RH  081%=      5-min Rain = 0
KPMS 150635Z 30010KT M00/M03 A3016 RMK A01 T10031033  RH  081%=      5-min Rain = 0
KPMS 150640Z 31009KT M00/M03 A3016 RMK A01 T10031034  RH  081%=      5-min Rain = 0
KPMS 150645Z 31009KT M00/M03 A3016 RMK A01 T10031034  RH  080%=      5-min Rain = 0
KPMS 150650Z 31009KT M00/M04 A3016 RMK A01 T10041035  RH  081%=      5-min Rain = 0
KPMS 150655Z 31009KT M01/M04 A3016 RMK A01 T10061035  RH  081%=      5-min Rain = 0
KPMS 150700Z 31009KT M01/M04 A3016 RMK A01 T10071036  RH  081%=      5-min Rain = 0
KPMS 150705Z 31009KT M01/M04 A3016 RMK A01 T10081036  RH  082%=      5-min Rain = 0
KPMS 150710Z 31009KT M01/M04 A3016 RMK A01 T10071036  RH  082%=      5-min Rain = 0
KPMS 150715Z 31009KT M01/M04 A3016 RMK A01 T10071036  RH  082%=      5-min Rain = 0
KPMS 150720Z 31010KT M01/M04 A3016 RMK A01 T10051035  RH  081%=      5-min Rain = 0
KPMS 150725Z 31010KT M00/M04 A3016 RMK A01 T10041035  RH  080%=      5-min Rain = 0
KPMS 150730Z 31009KT M01/M04 A3016 RMK A01 T10051036  RH  081%=      5-min Rain = 0
KPMS 150735Z 30009KT M01/M04 A3016 RMK A01 T10091037  RH  082%=      5-min Rain = 0
KPMS 150740Z 30009KT M01/M04 A3016 RMK A01 T10091037  RH  082%=      5-min Rain = 0
KPMS 150745Z 30009KT M01/M04 A3016 RMK A01 T10091037  RH  082%=      5-min Rain = 0
KPMS 150750Z 30008KT M01/M04 A3016 RMK A01 T10081036  RH  082%=      5-min Rain = 0
KPMS 150755Z 30008KT M01/M04 A3016 RMK A01 T10071037  RH  081%=      5-min Rain = 0
KPMS 150800Z 30008KT M01/M04 A3016 RMK A01 T10071037  RH  081%=      5-min Rain = 0
KPMS 150805Z 30008KT M01/M04 A3016 RMK A01 T10091038  RH  082%=      5-min Rain = 0
KPMS 150810Z 30009KT M01/M04 A3016 RMK A01 T10101038  RH  082%=      5-min Rain = 0
KPMS 150815Z 30008KT M01/M04 A3017 RMK A01 T10111038  RH  082%=      5-min Rain = 0
KPMS 150820Z 30007KT M01/M04 A3016 RMK A01 T10101038  RH  082%=      5-min Rain = 0
KPMS 150825Z 30006KT M01/M04 A3017 RMK A01 T10121040  RH  082%=      5-min Rain = 0
KPMS 150830Z 30007KT M01/M04 A3017 RMK A01 T10141040  RH  083%=      5-min Rain = 0
KPMS 150835Z 30008KT M01/M04 A3017 RMK A01 T10131039  RH  083%=      5-min Rain = 0
KPMS 150840Z 30008KT M01/M04 A3017 RMK A01 T10101038  RH  083%=      5-min Rain = 0
KPMS 150845Z 30008KT M01/M04 A3017 RMK A01 T10091038  RH  081%=      5-min Rain = 0
KPMS 150850Z 30009KT M01/M04 A3017 RMK A01 T10081038  RH  081%=      5-min Rain = 0
KPMS 150855Z 30008KT M01/M04 A3017 RMK A01 T10081038  RH  081%=      5-min Rain = 0
KPMS 150900Z 30008KT M01/M04 A3017 RMK A01 T10091039  RH  081%=      5-min Rain = 0
KPMS 150905Z 31007KT M01/M04 A3017 RMK A01 T10121040  RH  082%=      5-min Rain = 0
KPMS 150910Z 31008KT M01/M04 A3017 RMK A01 T10141041  RH  083%=      5-min Rain = 0
KPMS 150915Z 30008KT M01/M04 A3017 RMK A01 T10141041  RH  083%=      5-min Rain = 0
KPMS 150920Z 30008KT M01/M04 A3017 RMK A01 T10141041  RH  083%=      5-min Rain = 0
KPMS 150925Z 31008KT M01/M04 A3017 RMK A01 T10131041  RH  082%=      5-min Rain = 0
KPMS 150930Z 30008KT M02/M04 A3017 RMK A01 T10151042  RH  083%=      5-min Rain = 0
KPMS 150935Z 30008KT M02/M04 A3017 RMK A01 T10151041  RH  083%=      5-min Rain = 0
KPMS 150940Z 30008KT M01/M04 A3017 RMK A01 T10131041  RH  082%=      5-min Rain = 0
KPMS 150945Z 30007KT M01/M04 A3018 RMK A01 T10121041  RH  082%=      5-min Rain = 0
KPMS 150950Z 30008KT M01/M04 A3018 RMK A01 T10121041  RH  082%=      5-min Rain = 0
KPMS 150955Z 30009KT M01/M04 A3018 RMK A01 T10141042  RH  082%=      5-min Rain = 0
KPMS 151000Z 30008KT M01/M04 A3018 RMK A01 T10141041  RH  083%=      5-min Rain = 0
KPMS 151005Z 30009KT M01/M04 A3018 RMK A01 T10141042  RH  082%=      5-min Rain = 0
KPMS 151010Z 30008KT M02/M04 A3018 RMK A01 T10161043  RH  083%=      5-min Rain = 0
KPMS 151015Z 30009KT M02/M04 A3018 RMK A01 T10181043  RH  084%=      5-min Rain = 0
KPMS 151020Z 30009KT M02/M04 A3018 RMK A01 T10181043  RH  084%=      5-min Rain = 0
KPMS 151025Z 30008KT M02/M04 A3018 RMK A01 T10181043  RH  084%=      5-min Rain = 0
KPMS 151030Z 30008KT M02/M04 A3019 RMK A01 T10171042  RH  084%=      5-min Rain = 0
KPMS 151035Z 30007KT M02/M04 A3019 RMK A01 T10171042  RH  084%=      5-min Rain = 0
KPMS 151040Z 30008KT M02/M04 A3019 RMK A01 T10161042  RH  083%=      5-min Rain = 0
KPMS 151045Z 30008KT M02/M04 A3019 RMK A01 T10171043  RH  083%=      5-min Rain = 0
KPMS 151050Z 30008KT M02/M04 A3019 RMK A01 T10171043  RH  084%=      5-min Rain = 0
KPMS 151055Z 29007KT M02/M04 A3019 RMK A01 T10171043  RH  084%=      5-min Rain = 0
KPMS 151100Z 30008KT M02/M04 A3019 RMK A01 T10171043  RH  083%=      5-min Rain = 0
KPMS 151105Z 30007KT M02/M04 A3019 RMK A01 T10181044  RH  083%=      5-min Rain = 0
KPMS 151110Z 29007KT M02/M04 A3019 RMK A01 T10181043  RH  084%=      5-min Rain = 0
KPMS 151115Z 30007KT M02/M04 A302 RMK A01 T10191044  RH  084%=      5-min Rain = 0
KPMS 151120Z 29006KT M02/M04 A302 RMK A01 T10191044  RH  084%=      5-min Rain = 0
KPMS 151125Z 29005KT M02/M04 A302 RMK A01 T10201044  RH  084%=      5-min Rain = 0
KPMS 151130Z 29004KT M02/M05 A302 RMK A01 T10201045  RH  084%=      5-min Rain = 0
KPMS 151135Z 28004KT M02/M05 A302 RMK A01 T10221046  RH  085%=      5-min Rain = 0
KPMS 151140Z 28004KT M02/M05 A302 RMK A01 T10241047  RH  085%=      5-min Rain = 0
KPMS 151145Z 28003KT M02/M05 A302 RMK A01 T10241045  RH  086%=      5-min Rain = 0
KPMS 151150Z 28004KT M02/M05 A302 RMK A01 T10241046  RH  086%=      5-min Rain = 0
KPMS 151155Z 29004KT M03/M05 A302 RMK A01 T10261047  RH  087%=      5-min Rain = 0
KPMS 151200Z 29004KT M03/M05 A302 RMK A01 T10271047  RH  087%=      5-min Rain = 0
KPMS 151205Z 29004KT M03/M05 A302 RMK A01 T10271047  RH  087%=      5-min Rain = 0
KPMS 151210Z 29005KT M03/M05 A302 RMK A01 T10271047  RH  087%=      5-min Rain = 0
KPMS 151215Z 29005KT M03/M05 A302 RMK A01 T10281048  RH  087%=      5-min Rain = 0
KPMS 151220Z 29005KT M03/M05 A302 RMK A01 T10291048  RH  087%=      5-min Rain = 0
KPMS 151225Z 29006KT M03/M05 A3021 RMK A01 T10291048  RH  088%=      5-min Rain = 0
KPMS 151230Z 29006KT M03/M05 A3021 RMK A01 T10281048  RH  087%=      5-min Rain = 0
KPMS 151235Z 29006KT M03/M05 A3021 RMK A01 T10281048  RH  087%=      5-min Rain = 0
KPMS 151240Z 29006KT M03/M05 A3021 RMK A01 T10291049  RH  087%=      5-min Rain = 0
KPMS 151245Z 29006KT M03/M05 A3021 RMK A01 T10311050  RH  088%=      5-min Rain = 0
KPMS 151250Z 29006KT M03/M05 A3021 RMK A01 T10311050  RH  088%=      5-min Rain = 0
KPMS 151255Z 30007KT M03/M05 A3021 RMK A01 T10311049  RH  088%=      5-min Rain = 0
KPMS 151300Z 29006KT M03/M05 A3021 RMK A01 T10301049  RH  088%=      5-min Rain = 0
KPMS 151305Z 29006KT M03/M05 A3021 RMK A01 T10301049  RH  088%=      5-min Rain = 0
KPMS 151310Z 29006KT M03/M05 A3021 RMK A01 T10311049  RH  088%=      5-min Rain = 0
KPMS 151315Z 29006KT M03/M05 A3022 RMK A01 T10321050  RH  088%=      5-min Rain = 0
KPMS 151320Z 29006KT M03/M05 A3022 RMK A01 T10321050  RH  088%=      5-min Rain = 0
KPMS 151325Z 28006KT M03/M05 A3022 RMK A01 T10321050  RH  088%=      5-min Rain = 0
KPMS 151330Z 28006KT M03/M05 A3022 RMK A01 T10331051  RH  088%=      5-min Rain = 0
KPMS 151335Z 28005KT M03/M05 A3022 RMK A01 T10341052  RH  089%=      5-min Rain = 0
KPMS 151340Z 29006KT M03/M05 A3022 RMK A01 T10341051  RH  089%=      5-min Rain = 0
KPMS 151345Z 29006KT M03/M05 A3022 RMK A01 T10331052  RH  088%=      5-min Rain = 0
KPMS 151350Z 28006KT M03/M05 A3023 RMK A01 T10321051  RH  088%=      5-min Rain = 0
KPMS 151355Z 28006KT M03/M05 A3023 RMK A01 T10311050  RH  087%=      5-min Rain = 0
KPMS 151400Z 28006KT M03/M05 A3023 RMK A01 T10291050  RH  087%=      5-min Rain = 0
KPMS 151405Z 28006KT M03/M05 A3023 RMK A01 T10281050  RH  086%=      5-min Rain = 0
KPMS 151410Z 29006KT M03/M05 A3023 RMK A01 T10271049  RH  085%=      5-min Rain = 0
KPMS 151415Z 29006KT M03/M05 A3023 RMK A01 T10251049  RH  085%=      5-min Rain = 0
KPMS 151420Z 29006KT M02/M05 A3023 RMK A01 T10231048  RH  084%=      5-min Rain = 0
KPMS 151425Z 28006KT M02/M05 A3023 RMK A01 T10201046  RH  083%=      5-min Rain = 0
KPMS 151430Z 29005KT M02/M05 A3023 RMK A01 T10181045  RH  082%=      5-min Rain = 0
KPMS 151435Z 28006KT M02/M05 A3023 RMK A01 T10161045  RH  081%=      5-min Rain = 0
KPMS 151440Z 28005KT M01/M04 A3023 RMK A01 T10131044  RH  081%=      5-min Rain = 0
KPMS 151445Z 27004KT M01/M04 A3023 RMK A01 T10121043  RH  080%=      5-min Rain = 0
KPMS 151450Z 26003KT M01/M04 A3023 RMK A01 T10111043  RH  080%=      5-min Rain = 0
KPMS 151455Z 27003KT M01/M04 A3024 RMK A01 T10111042  RH  080%=      5-min Rain = 0
KPMS 151500Z 28004KT M01/M04 A3024 RMK A01 T10071040  RH  079%=      5-min Rain = 0
KPMS 151505Z 27004KT M00/M04 A3024 RMK A01 T10031039  RH  077%=      5-min Rain = 0
KPMS 151510Z 28003KT M00/M04 A3024 RMK A01 T10011040  RH  076%=      5-min Rain = 0
KPMS 151515Z 27003KT 00/M04 A3024 RMK A01 T00011039  RH  075%=      5-min Rain = 0
KPMS 151520Z 28003KT 00/M04 A3024 RMK A01 T00031038  RH  075%=      5-min Rain = 0
KPMS 151525Z 29004KT 01/M04 A3024 RMK A01 T00051037  RH  074%=      5-min Rain = 0
KPMS 151530Z 29004KT 01/M04 A3024 RMK A01 T00071036  RH  074%=      5-min Rain = 0
KPMS 151535Z 29004KT 01/M04 A3024 RMK A01 T00081036  RH  073%=      5-min Rain = 0
KPMS 151540Z 29004KT 01/M04 A3024 RMK A01 T00091036  RH  073%=      5-min Rain = 0
KPMS 151545Z 29003KT 01/M04 A3024 RMK A01 T00111035  RH  072%=      5-min Rain = 0
KPMS 151550Z 30004KT 01/M03 A3024 RMK A01 T00131034  RH  072%=      5-min Rain = 0
KPMS 151555Z 31005KT 01/M03 A3024 RMK A01 T00131034  RH  072%=      5-min Rain = 0.01
KPMS 151600Z 30005KT 01/M03 A3024 RMK A01 T00131033  RH  072%=      5-min Rain = 0
KPMS 151605Z 29004KT 02/M03 A3024 RMK A01 T00151031  RH  072%=      5-min Rain = 0
KPMS 151610Z 30005KT 02/M03 A3024 RMK A01 T00181031  RH  071%=      5-min Rain = 0
KPMS 151615Z 30005KT 02/M03 A3024 RMK A01 T00191029  RH  071%=      5-min Rain = 0
KPMS 151620Z 29004KT 02/M03 A3024 RMK A01 T00221030  RH  069%=      5-min Rain = 0
KPMS 151625Z 30005KT 02/M03 A3024 RMK A01 T00231030  RH  069%=      5-min Rain = 0.01
KPMS 151630Z 29004KT 03/M03 A3024 RMK A01 T00251030  RH  068%=      5-min Rain = 0
KPMS 151635Z 28004KT 03/M03 A3024 RMK A01 T00291027  RH  068%=      5-min Rain = 0
KPMS 151640Z 27005KT 03/M03 A3024 RMK A01 T00301028  RH  067%=      5-min Rain = 0
KPMS 151645Z 28004KT 03/M03 A3024 RMK A01 T00311027  RH  066%=      5-min Rain = 0
KPMS 151650Z 27005KT 03/M03 A3024 RMK A01 T00331027  RH  066%=      5-min Rain = 0
KPMS 151655Z 27005KT 03/M03 A3024 RMK A01 T00331028  RH  065%=      5-min Rain = 0.01
KPMS 151700Z 26004KT 03/M03 A3024 RMK A01 T00341027  RH  065%=      5-min Rain = 0
KPMS 151705Z 27004KT 04/M03 A3024 RMK A01 T00361030  RH  063%=      5-min Rain = 0
KPMS 151710Z 27004KT 04/M03 A3024 RMK A01 T00391034  RH  060%=      5-min Rain = 0
KPMS 151715Z 27004KT 04/M03 A3024 RMK A01 T00411030  RH  061%=      5-min Rain = 0.01
KPMS 151720Z 27005KT 04/M03 A3024 RMK A01 T00421030  RH  060%=      5-min Rain = 0
KPMS 151725Z 26004KT 04/M03 A3024 RMK A01 T00431029  RH  060%=      5-min Rain = 0.01
KPMS 151730Z 27005KT 04/M03 A3024 RMK A01 T00441027  RH  061%=      5-min Rain = 0
KPMS 151735Z 27004KT 05/M02 A3024 RMK A01 T00461024  RH  061%=      5-min Rain = 0.01
KPMS 151740Z 25003KT 05/M02 A3023 RMK A01 T00501023  RH  060%=      5-min Rain = 0
KPMS 151745Z 23004KT 05/M02 A3023 RMK A01 T00491024  RH  060%=      5-min Rain = 0.01
KPMS 151750Z 23004KT 05/M02 A3023 RMK A01 T00511019  RH  061%=      5-min Rain = 0
KPMS 151755Z 25005KT 05/M02 A3023 RMK A01 T00521021  RH  060%=      5-min Rain = 0.01
KPMS 151800Z 26004KT 06/M02 A3023 RMK A01 T00551018  RH  060%=      5-min Rain = 0.01
KPMS 151805Z 21007KT 05/M01 A3023 RMK A01 T00521010  RH  065%=      5-min Rain = 0
KPMS 151810Z 19009KT 04/M00 A3023 RMK A01 T00401004  RH  074%=      5-min Rain = 0.01
KPMS 151815Z 20009KT 04/M00 A3022 RMK A01 T00351004  RH  076%=      5-min Rain = 0
KPMS 151820Z 20008KT 03/M00 A3022 RMK A01 T00341003  RH  077%=      5-min Rain = 0.01
KPMS 151825Z 20007KT 04/M00 A3022 RMK A01 T00361002  RH  077%=      5-min Rain = 0
KPMS 151830Z 20007KT 04/M00 A3022 RMK A01 T00371001  RH  077%=      5-min Rain = 0.01
KPMS 151835Z 21007KT 04/00 A3021 RMK A01 T003800-0  RH  077%=      5-min Rain = 0
KPMS 151840Z 21007KT 04/M00 A3021 RMK A01 T00411001  RH  075%=      5-min Rain = 0.01
KPMS 151845Z 20007KT 04/00 A3021 RMK A01 T00430000  RH  075%=      5-min Rain = 0
KPMS 151850Z 21008KT 04/00 A3021 RMK A01 T00440003  RH  075%=      5-min Rain = 0.01
KPMS 151855Z 21008KT 05/00 A3021 RMK A01 T00450002  RH  075%=      5-min Rain = 0
KPMS 151900Z 21008KT 05/00 A302 RMK A01 T00460002  RH  074%=      5-min Rain = 0.01
KPMS 151905Z 21008KT 05/00 A302 RMK A01 T00480003  RH  073%=      5-min Rain = 0
KPMS 151910Z 21007KT 05/01 A302 RMK A01 T00510005  RH  073%=      5-min Rain = 0.01
KPMS 151915Z 21007KT 05/00 A3019 RMK A01 T00530004  RH  072%=      5-min Rain = 0
KPMS 151920Z 21007KT 06/00 A3019 RMK A01 T00550001  RH  069%=      5-min Rain = 0.02
KPMS 151925Z 21008KT 06/00 A3019 RMK A01 T00580002  RH  068%=      5-min Rain = 0.02
KPMS 151930Z 20008KT 06/00 A3018 RMK A01 T00600003  RH  068%=      5-min Rain = 0
KPMS 151935Z 21007KT 06/01 A3018 RMK A01 T00620006  RH  068%=      5-min Rain = 0
KPMS 151940Z 21007KT 06/01 A3018 RMK A01 T00630007  RH  068%=      5-min Rain = 0
KPMS 151945Z 20007KT 07/01 A3018 RMK A01 T00650007  RH  067%=      5-min Rain = 0
KPMS 151950Z 20007KT 07/01 A3017 RMK A01 T00670007  RH  066%=      5-min Rain = 0
KPMS 151955Z 19008KT 07/01 A3017 RMK A01 T00660010  RH  068%=      5-min Rain = 0
KPMS 152000Z 20007KT 07/01 A3017 RMK A01 T00670012  RH  069%=      5-min Rain = 0
KPMS 152005Z 20006KT 07/02 A3017 RMK A01 T00710015  RH  068%=      5-min Rain = 0
KPMS 152010Z 20007KT 07/01 A3017 RMK A01 T00730012  RH  066%=      5-min Rain = 0
KPMS 152015Z 19006KT 07/01 A3017 RMK A01 T00740014  RH  067%=      5-min Rain = 0
KPMS 152020Z 20006KT 08/01 A3016 RMK A01 T00760012  RH  064%=      5-min Rain = 0
KPMS 152025Z 20005KT 08/01 A3016 RMK A01 T00800013  RH  063%=      5-min Rain = 0
KPMS 152030Z 19006KT 08/01 A3016 RMK A01 T00830014  RH  063%=      5-min Rain = 0
KPMS 152035Z 19005KT 09/02 A3016 RMK A01 T00850017  RH  063%=      5-min Rain = 0
KPMS 152040Z 19006KT 09/02 A3015 RMK A01 T00870016  RH  062%=      5-min Rain = 0
KPMS 152045Z 20005KT 09/02 A3015 RMK A01 T00890020  RH  063%=      5-min Rain = 0
KPMS 152050Z 21005KT 09/02 A3015 RMK A01 T00930022  RH  062%=      5-min Rain = 0
KPMS 152055Z 22005KT 09/02 A3015 RMK A01 T00930016  RH  059%=      5-min Rain = 0
KPMS 152100Z 21005KT 09/02 A3014 RMK A01 T00930017  RH  059%=      5-min Rain = 0
KPMS 152105Z 20005KT 09/02 A3014 RMK A01 T00940020  RH  061%=      5-min Rain = 0
KPMS 152110Z 20005KT 10/02 A3014 RMK A01 T00960019  RH  059%=      5-min Rain = 0
KPMS 152115Z 20006KT 10/02 A3014 RMK A01 T00970020  RH  060%=      5-min Rain = 0
KPMS 152120Z 21004KT 10/02 A3014 RMK A01 T00980019  RH  059%=      5-min Rain = 0
KPMS 152125Z 21005KT 10/02 A3014 RMK A01 T01000017  RH  057%=      5-min Rain = 0
KPMS 152130Z 22003KT 10/01 A3013 RMK A01 T01010008  RH  053%=      5-min Rain = 0
KPMS 152135Z 21003KT 10/01 A3013 RMK A01 T01030014  RH  055%=      5-min Rain = 0
KPMS 152140Z 20005KT 11/02 A3013 RMK A01 T01050016  RH  055%=      5-min Rain = 0
KPMS 152145Z 23004KT 10/01 A3013 RMK A01 T01040010  RH  053%=      5-min Rain = 0
KPMS 152150Z 19004KT 11/01 A3012 RMK A01 T01050008  RH  052%=      5-min Rain = 0
KPMS 152155Z 20005KT 11/01 A3012 RMK A01 T01050010  RH  052%=      5-min Rain = 0
KPMS 152200Z 20006KT 11/01 A3012 RMK A01 T01060010  RH  052%=      5-min Rain = 0
KPMS 152205Z 20005KT 11/01 A3012 RMK A01 T01050010  RH  052%=      5-min Rain = 0
KPMS 152210Z 21004KT 11/01 A3012 RMK A01 T01070005  RH  050%=      5-min Rain = 0
KPMS 152215Z 19003KT 11/01 A3011 RMK A01 T01100005  RH  049%=      5-min Rain = 0
KPMS 152220Z 18005KT 11/01 A3011 RMK A01 T01100006  RH  049%=      5-min Rain = 0
KPMS 152225Z 20004KT 11/01 A3011 RMK A01 T01110009  RH  050%=      5-min Rain = 0
KPMS 152230Z 18004KT 11/01 A3011 RMK A01 T01120005  RH  048%=      5-min Rain = 0
KPMS 152235Z 19004KT 11/00 A301 RMK A01 T01120002  RH  047%=      5-min Rain = 0
KPMS 152240Z 18004KT 11/M00 A301 RMK A01 T01111001  RH  046%=      5-min Rain = 0
KPMS 152245Z 18005KT 11/00 A301 RMK A01 T011200-0  RH  047%=      5-min Rain = 0
KPMS 152250Z 19004KT 11/00 A301 RMK A01 T01120003  RH  047%=      5-min Rain = 0
KPMS 152255Z 17005KT 11/00 A301 RMK A01 T01130004  RH  048%=      5-min Rain = 0
KPMS 152300Z 17005KT 11/00 A301 RMK A01 T01120001  RH  047%=      5-min Rain = 0
KPMS 152305Z 17005KT 11/M00 A301 RMK A01 T01131001  RH  046%=      5-min Rain = 0
KPMS 152310Z 17004KT 11/M01 A301 RMK A01 T01121007  RH  044%=      5-min Rain = 0
KPMS 152315Z 17003KT 11/M01 A301 RMK A01 T01141005  RH  044%=      5-min Rain = 0
KPMS 152320Z 16004KT 12/M01 A3009 RMK A01 T01151005  RH  044%=      5-min Rain = 0
KPMS 152325Z 17004KT 11/M01 A3009 RMK A01 T01141005  RH  044%=      5-min Rain = 0
KPMS 152330Z 18005KT 11/M01 A3009 RMK A01 T01121006  RH  044%=      5-min Rain = 0
KPMS 152335Z 17005KT 11/M01 A3009 RMK A01 T01111008  RH  044%=      5-min Rain = 0
KPMS 152340Z 16005KT 11/M01 A3009 RMK A01 T01101009  RH  044%=      5-min Rain = 0
KPMS 152345Z 17005KT 11/M01 A3009 RMK A01 T01091007  RH  045%=      5-min Rain = 0
KPMS 152350Z 17005KT 11/M00 A3009 RMK A01 T01071002  RH  047%=      5-min Rain = 0
KPMS 152355Z 17005KT 10/00 A3009 RMK A01 T010400-0  RH  049%=      5-min Rain = 0
KPMS 160000Z 17006KT 10/M00 A3009 RMK A01 T00991001  RH  051%=      5-min Rain = 0
KPMS 160005Z 17006KT 09/00 A3009 RMK A01 T00930002  RH  054%=      5-min Rain = 0
KPMS 160010Z 17006KT 09/00 A3009 RMK A01 T00900003  RH  055%=      5-min Rain = 0
KPMS 160015Z 17006KT 09/00 A3008 RMK A01 T00850001  RH  056%=      5-min Rain = 0
KPMS 160020Z 16006KT 08/00 A3008 RMK A01 T007600-0  RH  059%=      5-min Rain = 0
KPMS 160025Z 16005KT 07/00 A3008 RMK A01 T00700002  RH  063%=      5-min Rain = 0
KPMS 160030Z 16006KT 07/00 A3008 RMK A01 T00660003  RH  065%=      5-min Rain = 0
KPMS 160035Z 16006KT 06/M00 A3008 RMK A01 T00641001  RH  064%=      5-min Rain = 0
KPMS 160040Z 15006KT 06/00 A3008 RMK A01 T00620001  RH  066%=      5-min Rain = 0
KPMS 160045Z 15006KT 06/00 A3008 RMK A01 T00570004  RH  069%=      5-min Rain = 0
KPMS 160050Z 15006KT 06/01 A3008 RMK A01 T00570006  RH  070%=      5-min Rain = 0
KPMS 160055Z 15006KT 06/01 A3008 RMK A01 T00550006  RH  072%=      5-min Rain = 0
KPMS 160100Z 15006KT 05/00 A3008 RMK A01 T00530001  RH  070%=      5-min Rain = 0
KPMS 160105Z 15006KT 05/00 A3008 RMK A01 T004900-0  RH  071%=      5-min Rain = 0
KPMS 160110Z 15006KT 05/00 A3008 RMK A01 T004700-0  RH  072%=      5-min Rain = 0
KPMS 160115Z 15006KT 05/M00 A3008 RMK A01 T00461003  RH  071%=      5-min Rain = 0
KPMS 160120Z 15006KT 04/M00 A3008 RMK A01 T00431002  RH  073%=      5-min Rain = 0
KPMS 160125Z 15006KT 04/M00 A3009 RMK A01 T00421002  RH  074%=      5-min Rain = 0
KPMS 160130Z 16006KT 04/M01 A3009 RMK A01 T00371005  RH  075%=      5-min Rain = 0
KPMS 160135Z 17005KT 04/M01 A3009 RMK A01 T00371007  RH  074%=      5-min Rain = 0
KPMS 160140Z 17005KT 04/M01 A3009 RMK A01 T00381006  RH  074%=      5-min Rain = 0
KPMS 160145Z 18005KT 04/M01 A3009 RMK A01 T00431005  RH  072%=      5-min Rain = 0
KPMS 160150Z 19005KT 04/M00 A3009 RMK A01 T00431004  RH  072%=      5-min Rain = 0
KPMS 160155Z 19005KT 04/M00 A3009 RMK A01 T00411002  RH  074%=      5-min Rain = 0
KPMS 160200Z 20005KT 04/M00 A3009 RMK A01 T00381004  RH  075%=      5-min Rain = 0
KPMS 160205Z 19005KT 04/M00 A3009 RMK A01 T00351003  RH  077%=      5-min Rain = 0
KPMS 160210Z 20006KT 03/M00 A3008 RMK A01 T00341004  RH  077%=      5-min Rain = 0
KPMS 160215Z 19006KT 04/M00 A3009 RMK A01 T00371004  RH  076%=      5-min Rain = 0
KPMS 160220Z 19006KT 04/M01 A3009 RMK A01 T00381005  RH  074%=      5-min Rain = 0
KPMS 160225Z 19007KT 04/M01 A3009 RMK A01 T00411005  RH  073%=      5-min Rain = 0
KPMS 160230Z 19007KT 05/M01 A3009 RMK A01 T00451005  RH  071%=      5-min Rain = 0
KPMS 160235Z 19007KT 05/M01 A3009 RMK A01 T00451005  RH  071%=      5-min Rain = 0
KPMS 160240Z 19007KT 04/M01 A3009 RMK A01 T00441005  RH  072%=      5-min Rain = 0
KPMS 160245Z 19007KT 04/M00 A3009 RMK A01 T00441004  RH  072%=      5-min Rain = 0
KPMS 160250Z 19007KT 04/M01 A3009 RMK A01 T00431005  RH  072%=      5-min Rain = 0
KPMS 160255Z 19008KT 04/M01 A3008 RMK A01 T00431005  RH  072%=      5-min Rain = 0
KPMS 160300Z 19007KT 04/M01 A3009 RMK A01 T00431005  RH  072%=      5-min Rain = 0
KPMS 160305Z 19007KT 04/M01 A3009 RMK A01 T00421005  RH  072%=      5-min Rain = 0
KPMS 160310Z 19006KT 04/M01 A3009 RMK A01 T00391005  RH  073%=      5-min Rain = 0
KPMS 160315Z 19006KT 04/M01 A3009 RMK A01 T00391005  RH  074%=      5-min Rain = 0
KPMS 160320Z 19006KT 04/M01 A3009 RMK A01 T00371005  RH  075%=      5-min Rain = 0
KPMS 160325Z 19007KT 04/M01 A3009 RMK A01 T00351005  RH  076%=      5-min Rain = 0
KPMS 160330Z 18007KT 03/M01 A3009 RMK A01 T00311008  RH  076%=      5-min Rain = 0
KPMS 160335Z 18006KT 02/M01 A3009 RMK A01 T00211013  RH  079%=      5-min Rain = 0
KPMS 160340Z 18006KT 02/M01 A3009 RMK A01 T00161013  RH  082%=      5-min Rain = 0
KPMS 160345Z 18007KT 02/M01 A3009 RMK A01 T00181011  RH  082%=      5-min Rain = 0
KPMS 160350Z 19009KT 02/M01 A3009 RMK A01 T00241009  RH  080%=      5-min Rain = 0
KPMS 160355Z 19009KT 03/M01 A3008 RMK A01 T00311009  RH  076%=      5-min Rain = 0
KPMS 160400Z 19009KT 03/M01 A3008 RMK A01 T00321009  RH  075%=      5-min Rain = 0
KPMS 160405Z 18008KT 03/M01 A3008 RMK A01 T00321010  RH  075%=      5-min Rain = 0
KPMS 160410Z 18007KT 03/M01 A3009 RMK A01 T00291011  RH  076%=      5-min Rain = 0
KPMS 160415Z 18007KT 03/M01 A3009 RMK A01 T00281010  RH  077%=      5-min Rain = 0
KPMS 160420Z 18007KT 03/M01 A3008 RMK A01 T00261010  RH  078%=      5-min Rain = 0
KPMS 160425Z 18007KT 02/M01 A3008 RMK A01 T00231012  RH  079%=      5-min Rain = 0
KPMS 160430Z 18007KT 02/M01 A3008 RMK A01 T00211011  RH  080%=      5-min Rain = 0
KPMS 160435Z 18007KT 02/M01 A3008 RMK A01 T00211011  RH  080%=      5-min Rain = 0
KPMS 160440Z 19007KT 02/M01 A3008 RMK A01 T00201011  RH  081%=      5-min Rain = 0
KPMS 160445Z 19007KT 02/M01 A3008 RMK A01 T00221010  RH  080%=      5-min Rain = 0
KPMS 160450Z 19008KT 02/M01 A3008 RMK A01 T00241010  RH  080%=      5-min Rain = 0
KPMS 160455Z 19008KT 03/M01 A3008 RMK A01 T00251009  RH  079%=      5-min Rain = 0
KPMS 160500Z 19007KT 03/M01 A3008 RMK A01 T00271009  RH  078%=      5-min Rain = 0
KPMS 160505Z 20007KT 03/M01 A3008 RMK A01 T00261009  RH  078%=      5-min Rain = 0
KPMS 160510Z 20006KT 02/M01 A3008 RMK A01 T00231010  RH  080%=      5-min Rain = 0
KPMS 160515Z 20007KT 02/M01 A3007 RMK A01 T00201011  RH  081%=      5-min Rain = 0
KPMS 160520Z 20008KT 02/M01 A3007 RMK A01 T00201011  RH  081%=      5-min Rain = 0
KPMS 160525Z 20007KT 02/M01 A3007 RMK A01 T00191012  RH  081%=      5-min Rain = 0
KPMS 160530Z 20007KT 02/M01 A3007 RMK A01 T00171013  RH  081%=      5-min Rain = 0
KPMS 160535Z 21008KT 02/M01 A3007 RMK A01 T00151013  RH  082%=      5-min Rain = 0
KPMS 160540Z 21009KT 02/M01 A3007 RMK A01 T00171013  RH  082%=      5-min Rain = 0
KPMS 160545Z 21009KT 02/M01 A3007 RMK A01 T00181013  RH  081%=      5-min Rain = 0
KPMS 160550Z 21009KT 02/M01 A3006 RMK A01 T00191014  RH  080%=      5-min Rain = 0
KPMS 160555Z 21008KT 02/M02 A3006 RMK A01 T00191015  RH  079%=      5-min Rain = 0

Page generated in 0.0482 seconds.